Wattenburg, Colorado
Current Conditions -  °F | °C
As of 3:35 AM on Monday 20 Oct 2014 (Local Time) from KEIK Reporting Station
Clear Clear  
Wind Chill: 39°   Ceiling: Unl
Heat Index: 39°   Visibility: 10mi
Dew Point: 36°   Wind: 3mph
Humidity: 88%   Direction: 190°S
Pressure: 30.15"   Gusts: NA
Location:  40.0874°N, 104.866°W
Report Text: KEIK 200935Z AUTO 19003KT 10SM CLR 04/02 A3015 RMK AO2 T00410022
Loading
Personal Weather Stations






























Interactive Weather Map
Tropical Storm Tracking
New forecast layout! Learn more

10-Day Weather Forecast

Advertisements
Track Severe Weather on mobile